createdAt,value
2022-10-28T00:01:17.769Z,32.42
2022-10-28T00:03:50.067Z,33.63
2022-10-28T00:06:26.448Z,31.90
2022-10-28T00:08:54.624Z,30.15
2022-10-28T00:11:30.952Z,36.47
2022-10-28T00:14:00.378Z,29.27
2022-10-28T00:16:30.772Z,35.10
2022-10-28T00:19:02.492Z,34.25
2022-10-28T00:21:31.821Z,31.67
2022-10-28T00:23:59.663Z,32.00
2022-10-28T00:26:32.477Z,48.35
2022-10-28T00:29:02.712Z,35.85
2022-10-28T00:31:31.438Z,33.27
2022-10-28T00:34:00.369Z,27.45
2022-10-28T00:36:30.146Z,33.83
2022-10-28T00:38:58.572Z,30.02
2022-10-28T00:41:32.831Z,29.90
2022-10-28T00:44:20.397Z,32.42
2022-10-28T00:46:50.946Z,33.60
2022-10-28T00:49:23.401Z,32.65
2022-10-28T00:51:54.558Z,35.25
2022-10-28T00:56:53.850Z,30.67
2022-10-28T00:59:31.492Z,34.33
2022-10-28T01:01:59.572Z,33.47
2022-10-28T01:04:27.602Z,37.35
2022-10-28T01:06:56.696Z,39.80
2022-10-28T01:12:26.874Z,36.83
2022-10-28T01:15:06.674Z,36.40
2022-10-28T01:18:12.151Z,38.65
2022-10-28T01:20:57.782Z,31.38
2022-10-28T01:23:46.145Z,34.42
2022-10-28T01:26:32.353Z,35.90
2022-10-28T01:29:27.877Z,37.22
2022-10-28T01:32:03.723Z,34.22
2022-10-28T01:34:44.019Z,37.58
2022-10-28T01:37:38.392Z,43.27
2022-10-28T01:40:10.163Z,42.70
2022-10-28T01:43:16.672Z,41.17
2022-10-28T01:46:03.428Z,38.08
2022-10-28T01:49:05.785Z,44.80
2022-10-28T01:51:38.041Z,38.22
2022-10-28T01:54:08.245Z,46.42
2022-10-28T01:56:40.444Z,43.87
2022-10-28T01:59:11.465Z,46.25
2022-10-28T02:01:39.131Z,45.63
2022-10-28T02:04:06.701Z,48.10
2022-10-28T02:06:37.509Z,57.05
2022-10-28T02:09:04.986Z,47.03
2022-10-28T02:11:51.847Z,47.67
2022-10-28T02:14:56.252Z,46.17
2022-10-28T02:17:53.095Z,43.03
2022-10-28T02:20:48.011Z,46.40
2022-10-28T02:23:23.026Z,45.47
2022-10-28T02:26:21.792Z,45.28
2022-10-28T02:28:58.323Z,39.70
2022-10-28T02:31:32.322Z,48.97
2022-10-28T02:34:06.930Z,45.45
2022-10-28T02:36:38.940Z,41.33
2022-10-28T02:39:07.913Z,43.47
2022-10-28T02:41:49.010Z,46.15
2022-10-28T02:44:24.125Z,49.53
2022-10-28T02:46:52.725Z,49.13
2022-10-28T02:49:20.515Z,49.67
2022-10-28T02:51:58.057Z,64.07
2022-10-28T02:54:32.232Z,71.40
2022-10-28T02:57:21.687Z,81.15
2022-10-28T02:59:57.920Z,63.80
2022-10-28T03:02:25.871Z,55.33
2022-10-28T03:04:53.977Z,51.90
2022-10-28T03:07:21.697Z,55.45
2022-10-28T03:09:49.149Z,46.22
2022-10-28T03:12:16.744Z,50.85
2022-10-28T03:14:44.273Z,51.85
2022-10-28T03:17:11.648Z,48.28
2022-10-28T03:19:39.170Z,53.67
2022-10-28T03:22:06.616Z,47.03
2022-10-28T03:24:34.162Z,45.85
2022-10-28T03:27:01.684Z,40.00
2022-10-28T03:29:29.175Z,32.22
2022-10-28T03:31:56.651Z,47.08
2022-10-28T03:34:24.180Z,38.17
2022-10-28T03:36:51.703Z,38.60
2022-10-28T03:39:19.322Z,35.40
2022-10-28T03:41:46.947Z,100.10
2022-10-28T03:44:14.445Z,41.28
2022-10-28T03:46:41.935Z,35.58
2022-10-28T03:49:09.314Z,42.72
2022-10-28T03:51:36.766Z,39.70
2022-10-28T03:54:04.524Z,34.80
2022-10-28T03:56:32.053Z,39.42
2022-10-28T03:58:59.635Z,41.50
2022-10-28T04:01:27.068Z,36.50
2022-10-28T04:03:54.552Z,32.60
2022-10-28T04:06:22.069Z,40.22
2022-10-28T04:08:49.501Z,35.42
2022-10-28T04:11:16.878Z,32.45
2022-10-28T04:13:44.322Z,39.65
2022-10-28T04:16:11.829Z,33.90
2022-10-28T04:18:39.388Z,29.73
2022-10-28T04:21:06.845Z,28.08
2022-10-28T04:23:34.393Z,39.65
2022-10-28T04:26:01.931Z,37.20
2022-10-28T04:28:29.622Z,29.60
2022-10-28T04:30:57.109Z,43.63
2022-10-28T04:33:24.567Z,42.80
2022-10-28T04:35:52.175Z,40.15
2022-10-28T04:38:19.719Z,37.17
2022-10-28T04:40:49.275Z,42.25
2022-10-28T04:43:17.176Z,38.35
2022-10-28T04:45:47.051Z,36.53
2022-10-28T04:48:14.504Z,23.23
2022-10-28T04:50:42.177Z,27.90
2022-10-28T04:53:09.612Z,39.28
2022-10-28T04:55:37.026Z,25.88
2022-10-28T04:58:04.858Z,41.95
2022-10-28T05:00:32.334Z,40.75
2022-10-28T05:03:03.185Z,37.17
2022-10-28T05:05:30.666Z,38.30
2022-10-28T05:07:58.014Z,39.50
2022-10-28T05:10:25.664Z,47.30
2022-10-28T05:12:53.069Z,32.88
2022-10-28T05:15:20.509Z,39.72
2022-10-28T05:17:48.534Z,28.48
2022-10-28T05:20:17.820Z,32.35
2022-10-28T05:22:50.356Z,36.42
2022-10-28T05:25:19.186Z,46.15
2022-10-28T05:27:47.194Z,44.92
2022-10-28T05:30:15.444Z,37.25
2022-10-28T05:32:47.404Z,39.25
2022-10-28T05:35:16.831Z,31.35
2022-10-28T05:37:44.380Z,30.35
2022-10-28T05:40:12.731Z,29.02
2022-10-28T05:42:44.646Z,28.63
2022-10-28T05:45:12.600Z,44.17
2022-10-28T05:47:44.812Z,29.75
2022-10-28T05:50:13.940Z,40.50
2022-10-28T05:52:49.230Z,38.63
2022-10-28T05:55:19.568Z,38.72
2022-10-28T05:57:47.957Z,39.80
2022-10-28T06:00:17.195Z,43.55
2022-10-28T06:02:44.745Z,40.75
2022-10-28T06:05:12.833Z,41.97
2022-10-28T06:07:41.569Z,31.88
2022-10-28T06:10:11.343Z,31.88
2022-10-28T06:12:37.463Z,50.20
2022-10-28T06:15:05.525Z,44.60
2022-10-28T06:17:34.980Z,34.25
2022-10-28T06:20:04.391Z,40.95
2022-10-28T06:22:31.957Z,36.05
2022-10-28T06:24:59.479Z,37.75
2022-10-28T06:27:27.369Z,37.58
2022-10-28T06:29:54.818Z,36.90
2022-10-28T06:32:22.318Z,41.92
2022-10-28T06:34:49.807Z,33.20
2022-10-28T06:37:17.856Z,43.38
2022-10-28T06:39:49.970Z,32.90
2022-10-28T06:42:18.281Z,43.72
2022-10-28T06:44:45.757Z,39.95
2022-10-28T06:47:14.804Z,38.67
2022-10-28T06:49:42.391Z,33.28
2022-10-28T06:52:10.053Z,31.52
2022-10-28T06:54:37.508Z,36.42
2022-10-28T06:57:05.250Z,47.17
2022-10-28T06:59:35.015Z,52.78
2022-10-28T07:02:02.598Z,50.22
2022-10-28T07:04:30.092Z,40.47
2022-10-28T07:06:58.542Z,39.10
2022-10-28T07:09:26.162Z,34.83
2022-10-28T07:11:55.232Z,40.00
2022-10-28T07:14:23.228Z,42.17
2022-10-28T07:16:50.865Z,44.85
2022-10-28T07:19:22.515Z,38.13
2022-10-28T07:21:50.148Z,37.28
2022-10-28T07:24:17.724Z,39.47
2022-10-28T07:26:47.251Z,35.58
2022-10-28T07:29:14.795Z,38.65
2022-10-28T07:31:42.496Z,31.20
2022-10-28T07:34:10.228Z,29.73
2022-10-28T07:36:37.674Z,29.58
2022-10-28T07:39:05.368Z,28.38
2022-10-28T07:41:32.735Z,58.35
2022-10-28T07:44:00.630Z,35.28
2022-10-28T07:46:28.095Z,38.67
2022-10-28T07:48:55.513Z,41.65
2022-10-28T07:51:22.944Z,39.92
2022-10-28T07:53:50.301Z,36.78
2022-10-28T07:56:18.083Z,36.72
2022-10-28T07:58:45.745Z,36.35
2022-10-28T08:01:16.289Z,36.45
2022-10-28T08:03:44.712Z,31.75
2022-10-28T08:06:17.543Z,35.55
2022-10-28T08:08:46.782Z,32.45
2022-10-28T08:11:20.125Z,29.85
2022-10-28T08:13:48.510Z,30.50
2022-10-28T08:16:16.623Z,31.48
2022-10-28T08:18:45.828Z,41.60
2022-10-28T08:21:14.090Z,48.45
2022-10-28T08:23:41.743Z,41.45
2022-10-28T08:26:09.174Z,39.45
2022-10-28T08:28:36.540Z,50.95
2022-10-28T08:31:09.576Z,37.55
2022-10-28T08:33:39.328Z,30.63
2022-10-28T08:36:08.127Z,28.92
2022-10-28T08:38:35.605Z,34.63
2022-10-28T08:41:08.216Z,31.65
2022-10-28T08:44:12.100Z,29.00
2022-10-28T08:47:01.060Z,30.08
2022-10-28T08:49:32.701Z,33.03
2022-10-28T08:52:06.078Z,29.77
2022-10-28T08:54:36.177Z,30.27
2022-10-28T08:57:11.761Z,39.30
2022-10-28T08:59:43.865Z,33.05
2022-10-28T09:02:11.228Z,32.03
2022-10-28T09:04:44.117Z,32.78
2022-10-28T09:07:20.541Z,30.98
2022-10-28T09:16:21.575Z,28.70
2022-10-28T09:18:55.053Z,26.55
2022-10-28T09:21:44.030Z,25.90
2022-10-28T09:24:42.108Z,25.38
2022-10-28T09:33:09.615Z,21.13
2022-10-28T09:35:42.626Z,20.80
2022-10-28T09:38:31.721Z,23.05
2022-10-28T09:41:20.924Z,21.30
2022-10-28T09:49:16.639Z,19.50
2022-10-28T09:51:55.976Z,18.42
2022-10-28T09:54:31.674Z,18.08
2022-10-28T09:59:43.998Z,17.05
2022-10-28T10:02:30.851Z,16.88
2022-10-28T10:05:00.282Z,14.80
2022-10-28T10:13:35.901Z,15.80
2022-10-28T10:16:15.113Z,15.82
2022-10-28T10:18:48.710Z,14.32
2022-10-28T10:24:01.779Z,17.77
2022-10-28T10:26:32.958Z,14.30
2022-10-28T10:31:29.937Z,13.02
2022-10-28T10:33:58.882Z,13.95
2022-10-28T10:36:29.206Z,13.90
2022-10-28T10:38:59.208Z,11.07
2022-10-28T10:41:39.772Z,15.93
2022-10-28T10:44:22.537Z,13.35
2022-10-28T10:47:06.619Z,13.15
2022-10-28T10:49:35.780Z,10.35
2022-10-28T10:52:33.027Z,13.17
2022-10-28T10:55:04.879Z,13.15
2022-10-28T11:00:21.846Z,14.00
2022-10-28T11:02:53.528Z,14.70
2022-10-28T11:05:27.343Z,14.73
2022-10-28T11:08:06.785Z,11.55
2022-10-28T11:10:35.486Z,15.45
2022-10-28T11:16:00.892Z,9.63
2022-10-28T11:18:31.780Z,12.27
2022-10-28T11:21:20.830Z,13.68
2022-10-28T11:24:10.002Z,10.82
2022-10-28T11:29:41.423Z,13.07
2022-10-28T11:32:27.477Z,13.55
2022-10-28T11:35:16.503Z,14.05
2022-10-28T11:41:47.103Z,9.57
2022-10-28T11:44:43.563Z,9.60
2022-10-28T11:47:39.035Z,12.65
2022-10-28T11:50:18.850Z,9.30
2022-10-28T11:52:58.704Z,9.20
2022-10-28T11:55:50.485Z,8.20
2022-10-28T11:58:58.285Z,9.88
2022-10-28T12:01:41.474Z,10.20
2022-10-28T12:10:35.764Z,9.82
2022-10-28T12:13:40.531Z,9.45
2022-10-28T12:16:40.011Z,10.07
2022-10-28T12:19:29.848Z,9.48
2022-10-28T12:22:05.998Z,10.00
2022-10-28T12:27:31.012Z,11.80
2022-10-28T12:30:14.484Z,8.13
2022-10-28T12:35:34.954Z,12.52
2022-10-28T12:38:15.157Z,14.95
2022-10-28T12:40:52.043Z,14.40
2022-10-28T12:46:45.100Z,12.25
2022-10-28T12:49:34.859Z,11.43
2022-10-28T12:52:30.352Z,11.65
2022-10-28T12:58:43.046Z,15.45
2022-10-28T13:01:16.788Z,11.63
2022-10-28T13:03:44.358Z,10.35
2022-10-28T13:06:29.555Z,12.02
2022-10-28T13:09:15.859Z,11.45
2022-10-28T13:11:53.381Z,12.23
2022-10-28T13:14:41.578Z,10.02
2022-10-28T13:17:29.355Z,9.27
2022-10-28T13:20:27.206Z,10.63
2022-10-28T13:23:15.285Z,11.27
2022-10-28T13:25:54.099Z,8.85
2022-10-28T13:31:09.125Z,10.18
2022-10-28T13:33:39.072Z,10.85
2022-10-28T13:39:42.845Z,8.32
2022-10-28T13:45:04.102Z,11.13
2022-10-28T13:50:35.219Z,6.80
2022-10-28T13:53:26.871Z,7.60
2022-10-28T13:55:58.199Z,7.95
2022-10-28T13:58:29.351Z,7.00
2022-10-28T14:00:57.056Z,9.85
2022-10-28T14:03:27.693Z,9.85
2022-10-28T14:06:00.934Z,10.85
2022-10-28T14:08:33.937Z,11.75
2022-10-28T14:11:01.407Z,9.43
2022-10-28T14:16:39.061Z,6.78
2022-10-28T14:22:07.270Z,9.45
2022-10-28T14:24:43.082Z,10.38
2022-10-28T14:27:13.787Z,12.77
2022-10-28T14:29:48.013Z,13.45
2022-10-28T14:35:28.753Z,15.05
2022-10-28T14:41:34.507Z,12.95
2022-10-28T14:44:21.334Z,19.17
2022-10-28T14:47:13.964Z,18.85
2022-10-28T14:52:44.413Z,27.88
2022-10-28T14:55:25.988Z,19.75
2022-10-28T15:00:49.420Z,22.10
2022-10-28T15:03:17.296Z,27.45
2022-10-28T15:05:44.748Z,24.85
2022-10-28T15:13:46.184Z,27.50
2022-10-28T15:16:25.695Z,24.20
2022-10-28T15:18:54.598Z,25.38
2022-10-28T15:24:16.077Z,79.47
2022-10-28T15:26:43.731Z,116.95
2022-10-28T15:32:14.396Z,69.22
2022-10-28T15:34:42.122Z,30.42
2022-10-28T15:37:10.204Z,33.50
2022-10-28T15:39:39.510Z,33.95
2022-10-28T15:42:49.483Z,21.98
2022-10-28T15:45:19.545Z,22.83
2022-10-28T15:47:48.922Z,26.52
2022-10-28T15:50:16.264Z,23.02
2022-10-28T15:52:48.482Z,29.27
2022-10-28T15:55:41.611Z,72.03
2022-10-28T16:03:45.869Z,61.22
2022-10-28T16:15:15.069Z,51.70
2022-10-28T16:17:43.778Z,28.88
2022-10-28T16:20:18.985Z,25.98
2022-10-28T16:22:47.253Z,25.15
2022-10-28T16:25:23.039Z,25.40
2022-10-28T16:27:51.304Z,26.58
2022-10-28T16:33:06.068Z,16.70
2022-10-28T16:35:33.485Z,22.45
2022-10-28T16:38:00.948Z,17.48
2022-10-28T16:40:50.475Z,23.20
2022-10-28T16:43:21.728Z,19.17
2022-10-28T16:45:50.470Z,17.00
2022-10-28T16:48:19.467Z,15.30
2022-10-28T16:50:57.049Z,16.95
2022-10-28T16:53:25.010Z,20.02
2022-10-28T16:58:40.229Z,16.63
2022-10-28T17:01:07.899Z,17.67
2022-10-28T17:03:36.039Z,20.50
2022-10-28T17:06:06.177Z,15.68
2022-10-28T17:09:01.381Z,18.33
2022-10-28T17:11:21.080Z,20.17
2022-10-28T17:16:35.187Z,22.50
2022-10-28T17:19:04.398Z,17.95
2022-10-28T17:21:31.882Z,21.55
2022-10-28T17:23:59.344Z,24.02
2022-10-28T17:29:11.907Z,22.05
2022-10-28T17:31:39.352Z,20.58
2022-10-28T17:36:51.331Z,22.35
2022-10-28T17:39:24.852Z,23.98
2022-10-28T17:41:53.979Z,19.58
2022-10-28T17:44:21.702Z,19.65
2022-10-28T17:46:49.646Z,20.00
2022-10-28T17:49:17.501Z,18.33
2022-10-28T17:51:45.177Z,24.15
2022-10-28T17:54:12.809Z,31.10
2022-10-28T17:59:26.885Z,23.98
2022-10-28T18:01:54.888Z,26.90
2022-10-28T18:04:26.695Z,20.73
2022-10-28T18:06:55.832Z,19.83
2022-10-28T18:09:23.299Z,25.10
2022-10-28T18:11:51.330Z,20.13
2022-10-28T18:14:20.310Z,24.38
2022-10-28T18:16:50.233Z,27.33
2022-10-28T18:19:17.852Z,22.98
2022-10-28T18:21:45.592Z,25.17
2022-10-28T18:24:13.151Z,23.38
2022-10-28T18:29:26.308Z,22.20
2022-10-28T18:31:53.727Z,20.10
2022-10-28T18:34:21.554Z,23.17
2022-10-28T18:39:33.921Z,23.98
2022-10-28T18:42:01.409Z,20.70
2022-10-28T18:47:19.729Z,20.80
2022-10-28T18:49:47.437Z,28.88
2022-10-28T18:52:15.457Z,25.30
2022-10-28T18:54:43.046Z,24.15
2022-10-28T19:02:44.800Z,22.98
2022-10-28T19:05:15.414Z,23.00
2022-10-28T19:07:42.979Z,20.98
2022-10-28T19:10:11.261Z,26.08
2022-10-28T19:12:42.875Z,21.08
2022-10-28T19:17:57.666Z,22.95
2022-10-28T19:20:25.747Z,20.63
2022-10-28T19:22:53.427Z,26.70
2022-10-28T19:25:21.484Z,28.55
2022-10-28T19:30:34.599Z,19.75
2022-10-28T19:33:02.206Z,18.83
2022-10-28T19:35:29.612Z,17.13
2022-10-28T19:37:57.116Z,17.98
2022-10-28T19:43:09.448Z,18.83
2022-10-28T19:45:37.005Z,20.23
2022-10-28T19:48:04.651Z,17.95
2022-10-28T19:50:32.168Z,19.02
2022-10-28T19:53:02.325Z,17.80
2022-10-28T19:55:29.722Z,20.42
2022-10-28T19:57:57.816Z,17.45
2022-10-28T20:00:25.484Z,15.95
2022-10-28T20:02:53.050Z,17.10
2022-10-28T20:05:20.955Z,18.15
2022-10-28T20:07:48.404Z,16.38
2022-10-28T20:10:16.479Z,15.25
2022-10-28T20:12:43.875Z,17.77
2022-10-28T20:15:11.808Z,17.98
2022-10-28T20:23:09.177Z,19.67
2022-10-28T20:25:36.689Z,15.63
2022-10-28T20:28:04.315Z,19.05
2022-10-28T20:30:31.741Z,18.92
2022-10-28T20:38:29.145Z,21.48
2022-10-28T20:40:59.148Z,18.17
2022-10-28T20:43:28.673Z,18.02
2022-10-28T20:46:01.521Z,20.00
2022-10-28T20:51:16.293Z,16.98
2022-10-28T20:53:43.946Z,18.58
2022-10-28T20:56:26.449Z,16.33
2022-10-28T21:07:10.993Z,18.20
2022-10-28T21:09:38.491Z,21.95
2022-10-28T21:12:06.133Z,18.83
2022-10-28T21:14:33.471Z,19.45
2022-10-28T21:17:01.833Z,19.63
2022-10-28T21:19:29.373Z,19.90
2022-10-28T21:21:56.837Z,15.88
2022-10-28T21:24:24.168Z,18.67
2022-10-28T21:26:52.262Z,17.08
2022-10-28T21:29:19.799Z,18.90
2022-10-28T21:31:47.342Z,18.90
2022-10-28T21:34:14.747Z,18.50
2022-10-28T21:36:42.135Z,20.85
2022-10-28T21:39:09.706Z,19.13
2022-10-28T21:41:37.073Z,19.23
2022-10-28T21:49:35.147Z,20.23
2022-10-28T21:52:02.771Z,19.08
2022-10-28T21:54:30.215Z,18.90
2022-10-28T21:56:57.671Z,19.17
2022-10-28T21:59:25.144Z,19.58
2022-10-28T22:01:52.929Z,19.67
2022-10-28T22:07:06.716Z,19.42
2022-10-28T22:15:04.280Z,19.27
2022-10-28T22:28:31.840Z,20.08
2022-10-28T22:33:53.371Z,23.58
2022-10-28T22:36:23.263Z,20.23
2022-10-28T22:38:51.341Z,21.40
2022-10-28T22:41:30.353Z,18.88
2022-10-28T22:44:02.273Z,19.45
2022-10-28T22:46:32.018Z,19.00
2022-10-28T22:48:59.999Z,20.30
2022-10-28T22:54:12.059Z,21.80
2022-10-28T22:56:40.315Z,21.45
2022-10-28T22:59:07.728Z,20.35
2022-10-28T23:01:35.219Z,19.77
2022-10-28T23:04:02.700Z,23.73
2022-10-28T23:06:30.528Z,18.52
2022-10-28T23:11:42.874Z,21.05
2022-10-28T23:14:10.371Z,19.45
2022-10-28T23:16:37.810Z,20.15
2022-10-28T23:19:05.346Z,21.55
2022-10-28T23:27:02.532Z,21.70
2022-10-28T23:29:29.993Z,26.13
2022-10-28T23:31:57.506Z,22.70
2022-10-28T23:37:11.511Z,24.40
2022-10-28T23:39:38.856Z,24.85
2022-10-28T23:47:35.879Z,23.13
2022-10-28T23:50:03.573Z,22.30
2022-10-28T23:52:31.001Z,19.17
2022-10-28T23:54:58.435Z,20.95
2022-10-28T23:57:26.002Z,21.67
2022-10-28T23:59:54.241Z,20.25
